This is the latest recevied weather packets stored in our database for station/object dl1wer-13. If no packets are shown the sender has not sent any weather packets the latest 10 day(s).
| Time | Temp. | Humidity | Pressure | Rain* | Wind** | Luminosity | Snow |
|---|---|---|---|---|---|---|---|
| 1777517416 | 5.56° C | 52% | 1050.2 hPa | 0 mm | - | - | - |
| 1777516816 | 5.56° C | 52% | 1050.2 hPa | 0 mm | - | - | - |
| 1777516217 | 5.56° C | 52% | 1050.4 hPa | 0 mm | - | - | - |
| 1777515617 | 6.11° C | 52% | 1050.3 hPa | 0 mm | - | - | - |
| 1777515016 | 6.11° C | 52% | 1049.9 hPa | 0 mm | - | - | - |
| 1777514418 | 6.11° C | 52% | 1050 hPa | 0 mm | - | - | - |
| 1777513816 | 6.11° C | 52% | 1049.9 hPa | 0 mm | - | - | - |
| 1777512017 | 6.67° C | 52% | 1049.7 hPa | 0 mm | - | - | - |
| 1777511417 | 6.67° C | 52% | 1049.9 hPa | 0 mm | - | - | - |
| 1777508416 | 7.78° C | 44% | 1049.5 hPa | 0 mm | - | - | - |
| 1777507817 | 7.78° C | 43% | 1049.7 hPa | 0 mm | - | - | - |
| 1777505420 | 7.78° C | 40% | 1049.8 hPa | 0 mm | - | - | - |
| 1777500617 | 9.44° C | 38% | 1049 hPa | 0 mm | - | - | - |
| 1777496418 | 11.11° C | 36% | 1048.5 hPa | 0 mm | - | - | - |
| 1777486817 | 13.89° C | 31% | 1047 hPa | 0 mm | - | - | - |
| 1777485017 | 15.56° C | 30% | 1046.5 hPa | 0 mm | - | - | - |
| 1777473017 | 17.78° C | 30% | 1045.8 hPa | 0 mm | - | - | - |
| 1777469417 | 17.78° C | 30% | 1046 hPa | 0 mm | - | - | - |
| 1777468816 | 17.78° C | 31% | 1045.8 hPa | 0 mm | - | - | - |
| 1777465217 | 17.22° C | 33% | 1046 hPa | 0 mm | - | - | - |
| 1777462217 | 16.11° C | 34% | 1046.2 hPa | 0 mm | - | - | - |
| 1777461617 | 16.11° C | 35% | 1046.1 hPa | 0 mm | - | - | - |
| 1777459217 | 15.56° C | 40% | 1046.2 hPa | 0 mm | - | - | - |
| 1777458617 | 15.56° C | 42% | 1046.1 hPa | 0 mm | - | - | - |
| 1777458016 | 15.56° C | 43% | 1046.1 hPa | 0 mm | - | - | - |
* Rain latest hour (hover to see other rain measurements)
** Current wind speed in m/s (hover to see current wind gust speed)